sensor_id;sensor_type;location;lat;lon;timestamp;pressure;altitude;pressure_sealevel;temperature;humidity
63582;BME280;49727;51.078;17.066;2023-10-19T00:04:29;99381.06;;;4.07;67.65
63582;BME280;49727;51.078;17.066;2023-10-19T00:19:33;99352.81;;;4.00;67.49
63582;BME280;49727;51.078;17.066;2023-10-19T00:34:39;99323.88;;;3.90;67.94
63582;BME280;49727;51.078;17.066;2023-10-19T00:49:40;99300.75;;;3.84;68.23
63582;BME280;49727;51.078;17.066;2023-10-19T01:04:40;99274.31;;;3.76;68.45
63582;BME280;49727;51.078;17.066;2023-10-19T01:19:42;99236.47;;;3.59;68.55
63582;BME280;49727;51.078;17.066;2023-10-19T01:34:43;99226.81;;;3.49;69.32
63582;BME280;49727;51.078;17.066;2023-10-19T01:49:43;99200.00;;;3.54;69.47
63582;BME280;49727;51.078;17.066;2023-10-19T02:04:48;99154.59;;;3.52;69.87
63582;BME280;49727;51.078;17.066;2023-10-19T02:19:51;99133.28;;;3.45;69.82
63582;BME280;49727;51.078;17.066;2023-10-19T02:34:51;99129.38;;;3.49;70.36
63582;BME280;49727;51.078;17.066;2023-10-19T02:49:51;99096.03;;;3.58;70.54
63582;BME280;49727;51.078;17.066;2023-10-19T03:04:55;99079.09;;;3.61;70.33
63582;BME280;49727;51.078;17.066;2023-10-19T03:19:56;99044.03;;;3.60;70.84
63582;BME280;49727;51.078;17.066;2023-10-19T03:34:57;99045.34;;;3.56;70.86
63582;BME280;49727;51.078;17.066;2023-10-19T03:50:01;99024.84;;;3.68;71.21
63582;BME280;49727;51.078;17.066;2023-10-19T04:05:06;98986.44;;;3.92;71.30
63582;BME280;49727;51.078;17.066;2023-10-19T04:20:10;98985.56;;;4.09;71.29
63582;BME280;49727;51.078;17.066;2023-10-19T04:35:19;98961.03;;;4.17;71.17
63582;BME280;49727;51.078;17.066;2023-10-19T04:50:23;98958.94;;;4.29;71.17
63582;BME280;49727;51.078;17.066;2023-10-19T05:05:23;98926.97;;;4.40;71.24
63582;BME280;49727;51.078;17.066;2023-10-19T05:20:23;98909.03;;;4.52;71.22
63582;BME280;49727;51.078;17.066;2023-10-19T05:35:25;98889.09;;;4.66;71.18
63582;BME280;49727;51.078;17.066;2023-10-19T05:50:26;98875.75;;;4.84;71.02
63582;BME280;49727;51.078;17.066;2023-10-19T06:05:28;98875.41;;;5.12;70.61
63582;BME280;49727;51.078;17.066;2023-10-19T06:20:30;98871.41;;;5.32;70.42
63582;BME280;49727;51.078;17.066;2023-10-19T06:35:31;98875.66;;;5.50;70.35
63582;BME280;49727;51.078;17.066;2023-10-19T06:50:31;98871.97;;;5.67;70.52
63582;BME280;49727;51.078;17.066;2023-10-19T07:05:32;98864.66;;;5.78;69.80
63582;BME280;49727;51.078;17.066;2023-10-19T07:20:32;98843.59;;;5.92;70.43
63582;BME280;49727;51.078;17.066;2023-10-19T07:35:36;98846.38;;;6.07;70.30
63582;BME280;49727;51.078;17.066;2023-10-19T07:50:43;98823.50;;;6.61;70.46
63582;BME280;49727;51.078;17.066;2023-10-19T08:05:43;98815.16;;;6.87;70.17
63582;BME280;49727;51.078;17.066;2023-10-19T08:20:44;98775.84;;;6.99;70.19
63582;BME280;49727;51.078;17.066;2023-10-19T08:35:49;98760.63;;;7.01;69.79
63582;BME280;49727;51.078;17.066;2023-10-19T08:50:50;98753.66;;;7.15;70.01
63582;BME280;49727;51.078;17.066;2023-10-19T09:05:50;98756.09;;;7.47;70.65
63582;BME280;49727;51.078;17.066;2023-10-19T09:20:52;98774.06;;;7.66;70.86
63582;BME280;49727;51.078;17.066;2023-10-19T09:35:52;98784.81;;;7.79;70.78
63582;BME280;49727;51.078;17.066;2023-10-19T09:50:55;98770.31;;;7.97;70.69
63582;BME280;49727;51.078;17.066;2023-10-19T10:05:56;98756.31;;;8.03;70.71
63582;BME280;49727;51.078;17.066;2023-10-19T10:21:08;98720.09;;;8.17;70.90
63582;BME280;49727;51.078;17.066;2023-10-19T10:36:12;98694.34;;;8.33;71.46
63582;BME280;49727;51.078;17.066;2023-10-19T10:51:22;98686.38;;;8.33;71.42
63582;BME280;49727;51.078;17.066;2023-10-19T11:06:23;98665.00;;;8.12;72.19
63582;BME280;49727;51.078;17.066;2023-10-19T11:21:24;98606.06;;;7.89;72.21
63582;BME280;49727;51.078;17.066;2023-10-19T11:36:24;98602.28;;;7.76;73.46
63582;BME280;49727;51.078;17.066;2023-10-19T11:51:26;98579.25;;;8.05;73.69
63582;BME280;49727;51.078;17.066;2023-10-19T12:06:26;98566.19;;;8.04;74.14
63582;BME280;49727;51.078;17.066;2023-10-19T12:21:27;98541.59;;;7.88;74.28
63582;BME280;49727;51.078;17.066;2023-10-19T12:36:28;98525.19;;;8.06;74.82
63582;BME280;49727;51.078;17.066;2023-10-19T12:51:28;98499.13;;;8.52;74.87
63582;BME280;49727;51.078;17.066;2023-10-19T13:06:30;98499.59;;;8.75;74.86
63582;BME280;49727;51.078;17.066;2023-10-19T13:21:31;98485.31;;;8.76;75.23
63582;BME280;49727;51.078;17.066;2023-10-19T13:36:33;98467.75;;;8.82;75.11
63582;BME280;49727;51.078;17.066;2023-10-19T13:51:33;98466.38;;;9.00;75.60
63582;BME280;49727;51.078;17.066;2023-10-19T14:06:33;98452.28;;;9.26;75.57
63582;BME280;49727;51.078;17.066;2023-10-19T14:21:34;98453.91;;;9.40;75.95
63582;BME280;49727;51.078;17.066;2023-10-19T14:36:37;98443.28;;;9.20;75.44
63582;BME280;49727;51.078;17.066;2023-10-19T14:51:38;98437.97;;;9.07;75.69
63582;BME280;49727;51.078;17.066;2023-10-19T15:06:38;98435.94;;;9.02;75.84
63582;BME280;49727;51.078;17.066;2023-10-19T15:21:38;98426.31;;;9.01;76.26
63582;BME280;49727;51.078;17.066;2023-10-19T15:36:38;98409.34;;;8.89;76.69
63582;BME280;49727;51.078;17.066;2023-10-19T15:51:39;98401.19;;;8.84;77.12
63582;BME280;49727;51.078;17.066;2023-10-19T16:06:39;98394.22;;;8.76;76.96
63582;BME280;49727;51.078;17.066;2023-10-19T16:21:40;98412.19;;;8.74;77.44
63582;BME280;49727;51.078;17.066;2023-10-19T16:36:41;98399.53;;;8.83;77.76
63582;BME280;49727;51.078;17.066;2023-10-19T16:51:42;98406.91;;;8.87;77.90
63582;BME280;49727;51.078;17.066;2023-10-19T17:06:43;98405.06;;;8.88;78.06
63582;BME280;49727;51.078;17.066;2023-10-19T17:21:43;98386.88;;;8.85;78.08
63582;BME280;49727;51.078;17.066;2023-10-19T17:36:44;98378.28;;;8.83;78.43
63582;BME280;49727;51.078;17.066;2023-10-19T17:51:45;98365.84;;;8.76;78.13
63582;BME280;49727;51.078;17.066;2023-10-19T18:06:48;98341.91;;;8.50;78.50
63582;BME280;49727;51.078;17.066;2023-10-19T18:21:49;98317.84;;;8.58;79.05
63582;BME280;49727;51.078;17.066;2023-10-19T18:36:53;98329.25;;;8.65;79.40
63582;BME280;49727;51.078;17.066;2023-10-19T18:51:53;98322.34;;;8.71;79.44
63582;BME280;49727;51.078;17.066;2023-10-19T19:06:53;98313.75;;;8.75;79.44
63582;BME280;49727;51.078;17.066;2023-10-19T19:21:55;98309.06;;;8.77;79.62
63582;BME280;49727;51.078;17.066;2023-10-19T19:36:56;98310.28;;;8.81;79.56
63582;BME280;49727;51.078;17.066;2023-10-19T19:51:56;98282.50;;;8.77;79.75
63582;BME280;49727;51.078;17.066;2023-10-19T20:06:56;98281.91;;;8.75;79.75
63582;BME280;49727;51.078;17.066;2023-10-19T20:21:57;98252.50;;;8.70;79.91
63582;BME280;49727;51.078;17.066;2023-10-19T20:36:57;98236.97;;;8.67;80.15
63582;BME280;49727;51.078;17.066;2023-10-19T20:51:57;98243.09;;;8.61;80.34
63582;BME280;49727;51.078;17.066;2023-10-19T21:06:58;98224.53;;;8.54;80.12
63582;BME280;49727;51.078;17.066;2023-10-19T21:21:58;98217.81;;;8.52;80.22
63582;BME280;49727;51.078;17.066;2023-10-19T21:36:59;98234.94;;;8.42;80.30
63582;BME280;49727;51.078;17.066;2023-10-19T21:51:59;98213.69;;;8.36;80.50
63582;BME280;49727;51.078;17.066;2023-10-19T22:06:59;98210.03;;;8.30;80.78
63582;BME280;49727;51.078;17.066;2023-10-19T22:22:01;98225.53;;;8.33;80.75
63582;BME280;49727;51.078;17.066;2023-10-19T22:37:02;98204.94;;;8.35;81.20
63582;BME280;49727;51.078;17.066;2023-10-19T22:52:03;98204.53;;;8.38;81.27
63582;BME280;49727;51.078;17.066;2023-10-19T23:07:04;98153.69;;;8.28;81.21
63582;BME280;49727;51.078;17.066;2023-10-19T23:22:04;98124.34;;;8.09;81.02
63582;BME280;49727;51.078;17.066;2023-10-19T23:37:06;98145.13;;;7.99;80.98
63582;BME280;49727;51.078;17.066;2023-10-19T23:52:06;98158.19;;;7.94;81.56
